Time;durP1;ratioP1;P1;durP2;ratioP2;P2;SDS_P1;SDS_P2;PMS_P1;PMS_P2;Temp;Humidity;BMP_temperature;BMP_pressure;BME280_temperature;BME280_humidity;BME280_pressure;Samples;Min_cycle;Max_cycle;Signal;HPM_P1;HPM_P2
2023/12/12 00:00:10;;;;;;;18.60;12.90;;;;;;;5.03;93.73;98830.88;5111143;28;20562;-59
2023/12/12 00:02:39;;;;;;;21.00;13.23;;;;;;;5.04;93.58;98819.81;5109484;28;20277;-61
2023/12/12 00:05:08;;;;;;;19.23;12.70;;;;;;;5.05;93.32;98821.53;5099964;28;20235;-61
2023/12/12 00:07:36;;;;;;;17.00;13.40;;;;;;;5.06;93.43;98828.31;5113026;28;20200;-61
2023/12/12 00:10:05;;;;;;;17.73;13.20;;;;;;;5.05;92.98;98830.03;5121277;27;20722;-59
2023/12/12 00:12:33;;;;;;;15.47;12.80;;;;;;;5.06;93.34;98833.44;5115992;27;20214;-61
2023/12/12 00:15:01;;;;;;;16.97;13.03;;;;;;;5.06;93.34;98825.75;5117907;27;20212;-61
2023/12/12 00:17:29;;;;;;;20.93;13.50;;;;;;;5.05;93.47;98834.28;5107936;27;20212;-61
2023/12/12 00:19:59;;;;;;;19.83;13.17;;;;;;;5.05;93.32;98832.59;5114916;27;20207;-62
2023/12/12 00:22:27;;;;;;;18.13;13.07;;;;;;;5.03;93.53;98833.44;5107717;27;20226;-61
2023/12/12 00:24:55;;;;;;;21.57;13.80;;;;;;;5.03;93.80;98838.56;5109974;27;20200;-60
2023/12/12 00:27:23;;;;;;;16.90;13.13;;;;;;;5.03;94.08;98833.44;5106760;27;20269;-57
2023/12/12 00:29:51;;;;;;;20.13;13.50;;;;;;;5.02;93.49;98837.72;5114192;27;20256;-62
2023/12/12 00:32:19;;;;;;;19.40;13.97;;;;;;;5.02;94.10;98832.59;5113088;27;20249;-61
2023/12/12 00:34:47;;;;;;;17.83;12.70;;;;;;;5.05;94.15;98839.41;5101558;28;20667;-61
2023/12/12 00:37:16;;;;;;;18.30;13.20;;;;;;;5.04;94.45;98838.56;5107574;27;20739;-62
2023/12/12 00:39:44;;;;;;;20.90;12.80;;;;;;;5.05;93.78;98836.84;5106645;27;20204;-57
2023/12/12 00:42:12;;;;;;;19.17;13.80;;;;;;;5.05;94.01;98841.94;5104326;27;20211;-58
2023/12/12 00:44:40;;;;;;;19.33;13.20;;;;;;;5.04;94.00;98840.25;5107388;27;20203;-58
2023/12/12 00:47:09;;;;;;;18.17;13.43;;;;;;;5.06;93.78;98848.75;5118301;27;20657;-61
2023/12/12 00:49:36;;;;;;;19.70;12.83;;;;;;;5.05;94.29;98847.06;5114730;27;20196;-53
2023/12/12 00:52:05;;;;;;;19.03;13.03;;;;;;;5.06;94.05;98853.84;5115904;27;20207;-55
2023/12/12 00:54:34;;;;;;;19.60;13.33;;;;;;;5.06;94.18;98846.19;5110431;27;20207;-57
2023/12/12 00:57:02;;;;;;;17.87;12.53;;;;;;;5.08;94.45;98854.66;5107888;27;20200;-58
2023/12/12 00:59:30;;;;;;;19.57;12.70;;;;;;;5.08;94.52;98847.88;5118079;27;20214;-54
2023/12/12 01:01:58;;;;;;;19.47;13.17;;;;;;;5.11;94.40;98853.81;5116149;27;20214;-54
2023/12/12 01:04:26;;;;;;;17.27;13.37;;;;;;;5.11;94.69;98854.63;5120083;27;20232;-54
2023/12/12 01:06:55;;;;;;;21.17;13.10;;;;;;;5.13;94.74;98854.66;5114516;27;20203;-54
2023/12/12 01:09:26;;;;;;;18.43;13.57;;;;;;;5.12;94.59;98848.69;5103690;27;20254;-55
2023/12/12 01:11:55;;;;;;;21.70;13.90;;;;;;;5.14;94.69;98854.63;5108580;27;20192;-55
2023/12/12 01:14:23;;;;;;;18.43;13.60;;;;;;;5.13;94.84;98860.59;5107227;27;20655;-54
2023/12/12 01:16:51;;;;;;;22.90;13.80;;;;;;;5.15;95.13;98863.13;5122516;27;20947;-57
2023/12/12 01:19:19;;;;;;;21.40;13.60;;;;;;;5.15;94.94;98870.78;5099779;27;20192;-55
2023/12/12 01:21:47;;;;;;;15.33;12.20;;;;;;;5.16;95.15;98878.44;5104175;28;20299;-58
2023/12/12 01:24:15;;;;;;;18.87;12.90;;;;;;;5.18;95.45;98876.72;5098818;27;20310;-57
2023/12/12 01:26:43;;;;;;;19.60;12.30;;;;;;;5.20;95.25;98877.56;5105748;27;20200;-54
2023/12/12 01:29:16;;;;;;;18.10;13.50;;;;;;;5.21;95.05;98869.03;5103026;27;20261;-57
2023/12/12 01:31:44;;;;;;;16.90;13.07;;;;;;;5.23;95.43;98874.13;5107169;27;20199;-57
2023/12/12 01:34:12;;;;;;;18.13;12.50;;;;;;;5.23;95.54;98874.13;5104360;27;20713;-56
2023/12/12 01:36:40;;;;;;;17.90;12.50;;;;;;;5.21;95.61;98879.25;5106835;27;20647;-57
2023/12/12 01:39:08;;;;;;;18.97;13.67;;;;;;;5.22;95.57;98887.75;5104984;27;20636;-56
2023/12/12 01:41:36;;;;;;;16.13;12.37;;;;;;;5.23;95.96;98894.56;5104885;27;20675;-55
2023/12/12 01:44:05;;;;;;;18.17;13.50;;;;;;;5.22;96.32;98891.13;5106087;27;20717;-57
2023/12/12 01:46:36;;;;;;;19.53;13.40;;;;;;;5.22;96.52;98891.13;5106935;27;20659;-57
2023/12/12 01:49:04;;;;;;;21.23;13.10;;;;;;;5.24;96.34;98899.66;5103008;27;20667;-56
2023/12/12 01:51:33;;;;;;;19.13;13.70;;;;;;;5.24;96.11;98884.31;5105393;27;20203;-55
2023/12/12 01:54:02;;;;;;;16.13;12.23;;;;;;;5.26;96.30;98892.81;5101351;27;20605;-57
2023/12/12 01:56:31;;;;;;;18.83;13.03;;;;;;;5.26;96.64;98886.84;5110437;28;20223;-58
2023/12/12 01:59:00;;;;;;;17.83;12.07;;;;;;;5.24;96.87;98889.44;5107585;27;20207;-58
2023/12/12 02:01:29;;;;;;;16.10;11.97;;;;;;;5.25;97.05;98887.72;5104452;27;20708;-58
2023/12/12 02:03:58;;;;;;;15.90;12.33;;;;;;;5.24;97.24;98899.66;5101268;28;20544;-58
2023/12/12 02:06:28;;;;;;;19.60;12.27;;;;;;;5.23;97.42;98899.69;5102420;27;20685;-58
2023/12/12 02:08:56;;;;;;;18.33;12.50;;;;;;;5.19;97.82;98900.53;5103871;27;20210;-57
2023/12/12 02:11:25;;;;;;;18.23;12.23;;;;;;;5.16;98.13;98901.44;5102334;27;20674;-60
2023/12/12 02:13:53;;;;;;;16.97;12.53;;;;;;;5.12;98.79;98909.97;5103253;27;20264;-57
2023/12/12 02:16:21;;;;;;;17.63;12.67;;;;;;;5.11;99.11;98908.25;5103840;27;20570;-61
2023/12/12 02:18:49;;;;;;;20.30;13.10;;;;;;;5.10;99.47;98909.13;5099577;28;20204;-59
2023/12/12 02:21:20;;;;;;;18.73;13.37;;;;;;;5.09;99.75;98920.22;5103122;27;20222;-58
2023/12/12 02:23:48;;;;;;;19.03;13.63;;;;;;;5.10;100.00;98919.34;5098889;27;20933;-58
2023/12/12 02:26:17;;;;;;;18.40;13.90;;;;;;;5.09;100.00;98920.22;5102371;27;20204;-56
2023/12/12 02:28:46;;;;;;;23.23;14.50;;;;;;;5.07;100.00;98921.91;5097753;28;20577;-59
2023/12/12 02:31:17;;;;;;;18.90;13.40;;;;;;;5.06;99.98;98922.78;5101407;28;20196;-59
2023/12/12 02:33:45;;;;;;;21.40;14.17;;;;;;;5.07;100.00;98916.81;5102826;28;20654;-57
2023/12/12 02:36:15;;;;;;;18.57;14.17;;;;;;;5.07;100.00;98919.34;5105358;27;20238;-61
2023/12/12 02:38:44;;;;;;;23.43;16.10;;;;;;;5.06;100.00;98915.13;5102983;27;20203;-59
2023/12/12 02:41:13;;;;;;;20.53;15.13;;;;;;;5.04;100.00;98909.16;5101255;27;20207;-57
2023/12/12 02:43:41;;;;;;;22.37;15.20;;;;;;;5.03;100.00;98918.53;5105975;28;20227;-63
2023/12/12 02:46:12;;;;;;;23.63;15.73;;;;;;;5.03;100.00;98920.25;5102947;27;20244;-57
2023/12/12 02:48:40;;;;;;;25.00;14.50;;;;;;;5.03;100.00;98921.09;5102507;28;20219;-57
2023/12/12 02:51:08;;;;;;;25.57;16.50;;;;;;;5.05;100.00;98919.38;5103239;28;20616;-59
2023/12/12 02:53:36;;;;;;;25.03;15.83;;;;;;;5.06;100.00;98923.63;5101708;28;20311;-58
2023/12/12 02:56:05;;;;;;;27.27;16.83;;;;;;;5.07;100.00;98930.41;5104387;28;20560;-58
2023/12/12 02:58:33;;;;;;;23.87;16.33;;;;;;;5.04;100.00;98927.91;5100408;28;20206;-58
2023/12/12 03:01:01;;;;;;;26.77;16.20;;;;;;;5.06;100.00;98925.31;5104036;28;20663;-57
2023/12/12 03:03:28;;;;;;;26.13;15.90;;;;;;;5.08;100.00;98936.34;5106863;28;20204;-58
2023/12/12 03:05:56;;;;;;;24.90;15.67;;;;;;;5.07;100.00;98938.06;5108333;28;20204;-57
2023/12/12 03:08:24;;;;;;;29.33;17.03;;;;;;;5.07;100.00;98930.41;5105577;28;20671;-57
2023/12/12 03:10:52;;;;;;;25.37;16.97;;;;;;;5.08;100.00;98939.78;5097474;28;20246;-56
2023/12/12 03:13:22;;;;;;;26.17;16.00;;;;;;;5.10;100.00;98944.88;5109847;28;20279;-58
2023/12/12 03:15:49;;;;;;;25.93;16.93;;;;;;;5.11;100.00;98948.25;5108738;28;20199;-58
2023/12/12 03:18:17;;;;;;;28.30;17.50;;;;;;;5.11;100.00;98945.72;5110866;27;20209;-58
2023/12/12 03:20:45;;;;;;;30.07;17.10;;;;;;;5.05;100.00;98951.72;5124715;28;20239;-56
2023/12/12 03:23:13;;;;;;;32.97;17.00;;;;;;;5.06;100.00;98953.41;5108759;28;20215;-56
2023/12/12 03:25:41;;;;;;;32.23;17.70;;;;;;;5.06;100.00;98950.84;5115824;28;20649;-56
2023/12/12 03:28:09;;;;;;;34.77;18.70;;;;;;;5.04;100.00;98956.00;5112508;28;20667;-58
2023/12/12 03:30:38;;;;;;;32.67;16.80;;;;;;;5.01;100.00;98963.66;5108385;28;20196;-57
2023/12/12 03:33:06;;;;;;;29.03;17.47;;;;;;;5.05;100.00;98961.94;5111213;28;20207;-55
2023/12/12 03:35:34;;;;;;;35.50;18.53;;;;;;;5.04;100.00;98957.66;5096450;27;20212;-59
2023/12/12 03:38:02;;;;;;;35.03;18.13;;;;;;;5.05;100.00;98959.38;5108609;28;20682;-58
2023/12/12 03:40:30;;;;;;;36.93;18.70;;;;;;;5.06;100.00;98961.91;5108620;28;20261;-58
2023/12/12 03:42:58;;;;;;;37.97;19.80;;;;;;;5.05;100.00;98964.50;5114988;28;20241;-57
2023/12/12 03:45:25;;;;;;;35.50;18.37;;;;;;;5.07;100.00;98967.88;5106309;27;20599;-57
2023/12/12 03:47:55;;;;;;;32.63;18.33;;;;;;;5.07;100.00;98967.88;5102640;27;20208;-56
2023/12/12 03:50:22;;;;;;;36.40;18.93;;;;;;;5.08;100.00;98974.66;5113937;27;20282;-57
2023/12/12 03:52:50;;;;;;;32.33;18.23;;;;;;;5.08;100.00;98982.31;5115804;27;20642;-59
2023/12/12 03:55:19;;;;;;;36.53;19.00;;;;;;;5.08;100.00;98982.31;5104714;27;20269;-56
2023/12/12 03:57:47;;;;;;;36.43;19.07;;;;;;;5.06;100.00;98978.94;5118782;27;20565;-60
2023/12/12 04:00:15;;;;;;;38.20;20.00;;;;;;;5.06;100.00;98978.94;5114211;27;20204;-61
2023/12/12 04:02:43;;;;;;;41.17;18.93;;;;;;;5.07;100.00;98981.47;5115073;27;20212;-60
2023/12/12 04:05:13;;;;;;;39.67;19.13;;;;;;;5.07;100.00;98978.06;5105868;27;20204;-62
2023/12/12 04:07:42;;;;;;;36.47;19.17;;;;;;;5.06;100.00;98968.72;5118700;27;20223;-62
2023/12/12 04:10:10;;;;;;;36.30;18.77;;;;;;;5.05;100.00;98980.66;5102798;27;20204;-60
2023/12/12 04:12:39;;;;;;;33.60;17.53;;;;;;;5.04;100.00;98981.53;5103928;27;20639;-61
2023/12/12 04:15:08;;;;;;;34.80;17.60;;;;;;;5.05;100.00;98982.38;5103670;27;20209;-59
2023/12/12 04:17:36;;;;;;;34.53;19.63;;;;;;;5.02;100.00;98985.78;5109849;27;20208;-60
2023/12/12 04:20:05;;;;;;;33.60;17.27;;;;;;;5.02;100.00;98985.78;5109870;27;20197;-60
2023/12/12 04:22:34;;;;;;;35.67;18.63;;;;;;;5.03;100.00;98987.47;5120142;27;20323;-61
2023/12/12 04:25:02;;;;;;;33.87;19.47;;;;;;;5.03;100.00;98994.28;5114551;27;20207;-60
2023/12/12 04:27:32;;;;;;;32.17;16.83;;;;;;;5.02;100.00;98990.88;5112716;27;20204;-62
2023/12/12 04:30:00;;;;;;;33.43;17.20;;;;;;;5.03;100.00;98997.66;5107357;27;20551;-53
2023/12/12 04:32:27;;;;;;;35.07;18.13;;;;;;;5.03;100.00;98996.81;5114734;27;20543;-57
2023/12/12 04:34:55;;;;;;;30.13;18.07;;;;;;;5.04;100.00;99004.50;5109319;27;20288;-53
2023/12/12 04:37:23;;;;;;;27.93;16.07;;;;;;;5.04;100.00;99001.06;5116231;27;20199;-53
2023/12/12 04:39:52;;;;;;;25.70;15.40;;;;;;;5.04;100.00;99004.50;5111823;27;20209;-55
2023/12/12 04:42:20;;;;;;;27.53;15.50;;;;;;;5.06;100.00;99001.91;5111638;27;20208;-55
2023/12/12 04:44:48;;;;;;;23.33;14.73;;;;;;;5.03;100.00;98992.56;5110304;27;20237;-54
2023/12/12 04:47:16;;;;;;;22.37;15.37;;;;;;;5.04;100.00;99004.50;5103565;28;20284;-56
2023/12/12 04:49:44;;;;;;;22.43;13.63;;;;;;;5.06;100.00;99002.75;5106529;27;20211;-54
2023/12/12 04:52:12;;;;;;;21.63;13.57;;;;;;;5.06;100.00;99002.75;5113559;27;20204;-61
2023/12/12 04:54:40;;;;;;;19.67;13.10;;;;;;;5.08;100.00;99005.28;5113196;27;20268;-56
2023/12/12 04:57:09;;;;;;;19.93;13.40;;;;;;;5.08;100.00;99007.84;5109503;27;20571;-56
2023/12/12 04:59:37;;;;;;;19.10;12.73;;;;;;;5.10;100.00;99003.59;5110832;27;20249;-55
2023/12/12 05:02:06;;;;;;;22.07;13.90;;;;;;;5.11;100.00;99009.53;5106431;27;20207;-56
2023/12/12 05:04:35;;;;;;;20.80;13.90;;;;;;;5.14;100.00;99015.47;5106487;27;20697;-57
2023/12/12 05:07:04;;;;;;;23.83;14.37;;;;;;;5.13;100.00;99016.34;5112094;27;20212;-59
2023/12/12 05:09:31;;;;;;;26.20;16.00;;;;;;;5.13;100.00;99021.44;5112197;27;20231;-56
2023/12/12 05:11:59;;;;;;;28.30;16.23;;;;;;;5.12;100.00;99018.88;5107119;27;20204;-54
2023/12/12 05:14:29;;;;;;;26.43;15.80;;;;;;;5.13;100.00;99018.91;5111812;27;20227;-53
2023/12/12 05:16:56;;;;;;;29.73;17.20;;;;;;;5.12;100.00;99027.44;5111618;28;20212;-52
2023/12/12 05:19:37;;;;;;;36.37;18.33;;;;;;;5.13;100.00;99028.25;5114770;27;20208;-54
2023/12/12 05:22:05;;;;;;;32.83;18.10;;;;;;;5.13;100.00;99034.22;5115574;27;20559;-57
2023/12/12 05:24:33;;;;;;;35.77;17.60;;;;;;;5.13;100.00;99041.03;5105178;27;20212;-52
2023/12/12 05:27:01;;;;;;;44.40;20.20;;;;;;;5.14;100.00;99050.38;5112848;28;20288;-57
2023/12/12 05:29:30;;;;;;;43.93;20.33;;;;;;;5.14;100.00;99053.78;5100857;28;20642;-57
2023/12/12 05:31:58;;;;;;;41.40;20.40;;;;;;;5.13;100.00;99049.53;5103920;27;20215;-53
2023/12/12 05:34:26;;;;;;;41.77;20.70;;;;;;;5.12;100.00;99055.50;5105285;27;20196;-55
2023/12/12 05:36:54;;;;;;;42.60;21.43;;;;;;;5.13;100.00;99062.31;5115099;27;20626;-55
2023/12/12 05:39:22;;;;;;;52.13;22.60;;;;;;;5.13;100.00;99057.19;5123490;27;20196;-56
2023/12/12 05:41:50;;;;;;;47.23;20.97;;;;;;;5.14;100.00;99060.59;5116845;27;20208;-58
2023/12/12 05:44:17;;;;;;;45.80;21.77;;;;;;;5.12;100.00;99054.63;5113839;27;20231;-55
2023/12/12 05:46:47;;;;;;;38.67;20.40;;;;;;;5.11;100.00;99061.44;5104389;27;20292;-55
2023/12/12 05:49:15;;;;;;;40.07;20.37;;;;;;;5.10;100.00;99069.97;5114878;27;20228;-55
2023/12/12 05:51:43;;;;;;;43.23;20.17;;;;;;;5.10;100.00;99077.63;5109951;27;20215;-57
2023/12/12 05:54:11;;;;;;;36.27;19.53;;;;;;;5.11;100.00;99081.88;5112526;27;20655;-55
2023/12/12 05:56:42;;;;;;;37.20;19.87;;;;;;;5.12;100.00;99080.16;5110715;27;20275;-53
2023/12/12 05:59:14;;;;;;;34.77;17.90;;;;;;;5.13;100.00;99087.84;5112533;27;20196;-62
2023/12/12 06:01:42;;;;;;;33.87;18.23;;;;;;;5.15;100.00;99085.25;5113169;27;20204;-55
2023/12/12 06:04:14;;;;;;;27.27;17.13;;;;;;;5.14;100.00;99086.97;5106731;27;20235;-57
2023/12/12 06:06:43;;;;;;;29.73;17.83;;;;;;;5.15;100.00;99091.22;5103391;28;20256;-54
2023/12/12 06:09:12;;;;;;;30.00;17.57;;;;;;;5.17;100.00;99097.19;5100920;27;20704;-52
2023/12/12 06:11:41;;;;;;;29.57;17.10;;;;;;;5.20;100.00;99091.22;5100811;27;20232;-55
2023/12/12 06:14:10;;;;;;;27.33;16.63;;;;;;;5.19;100.00;99098.03;5108334;27;20203;-55
2023/12/12 06:16:38;;;;;;;23.97;16.17;;;;;;;5.21;100.00;99106.50;5106519;27;20566;-57
2023/12/12 06:19:07;;;;;;;24.23;14.97;;;;;;;5.19;100.00;99110.81;5101777;27;20196;-54
2023/12/12 06:21:37;;;;;;;25.37;14.63;;;;;;;5.21;100.00;99109.06;5104180;27;20215;-55
2023/12/12 06:24:07;;;;;;;22.73;14.30;;;;;;;5.21;100.00;99114.19;5109821;27;20219;-59
2023/12/12 06:26:37;;;;;;;24.30;14.67;;;;;;;5.24;100.00;99116.72;5104815;27;20224;-57
2023/12/12 06:29:07;;;;;;;24.03;14.83;;;;;;;5.22;100.00;99110.75;5104763;27;20218;-58
2023/12/12 06:31:35;;;;;;;25.43;14.93;;;;;;;5.23;100.00;99122.69;5101805;27;20215;-56
2023/12/12 06:34:03;;;;;;;27.07;16.33;;;;;;;5.22;100.00;99115.03;5113312;27;20294;-57
2023/12/12 06:36:31;;;;;;;29.37;16.57;;;;;;;5.23;100.00;99117.59;5102142;28;20205;-57
2023/12/12 06:39:00;;;;;;;32.03;16.97;;;;;;;5.22;100.00;99128.63;5110171;27;20711;-56
2023/12/12 06:41:28;;;;;;;29.33;17.30;;;;;;;5.23;100.00;99125.25;5103246;28;20207;-58
2023/12/12 06:43:56;;;;;;;35.73;17.70;;;;;;;5.24;100.00;99124.38;5096870;28;20235;-56
2023/12/12 06:46:25;;;;;;;36.87;18.60;;;;;;;5.26;100.00;99137.97;5098727;28;20207;-57
2023/12/12 06:48:53;;;;;;;33.43;18.20;;;;;;;5.26;100.00;99140.53;5105201;27;20662;-56
2023/12/12 06:51:22;;;;;;;36.57;19.43;;;;;;;5.24;100.00;99149.91;5112380;28;20734;-56
2023/12/12 06:53:52;;;;;;;35.30;18.70;;;;;;;5.20;100.00;99150.78;5110332;28;20239;-58
2023/12/12 06:56:22;;;;;;;36.67;18.33;;;;;;;5.22;100.00;99150.78;5106273;28;20905;-59
2023/12/12 06:58:50;;;;;;;38.53;19.60;;;;;;;5.20;100.00;99153.34;5109600;28;20207;-57
2023/12/12 07:01:17;;;;;;;37.43;19.20;;;;;;;5.20;100.00;99155.91;5100496;28;20226;-60
2023/12/12 07:03:46;;;;;;;40.80;20.13;;;;;;;5.19;100.00;99156.75;5104423;28;20208;-56
2023/12/12 07:06:13;;;;;;;40.63;19.17;;;;;;;5.17;100.00;99150.81;5110057;28;20259;-56
2023/12/12 07:08:42;;;;;;;48.47;20.73;;;;;;;5.18;100.00;99152.50;5110510;28;20662;-59
2023/12/12 07:11:10;;;;;;;54.57;29.83;;;;;;;5.20;100.00;99158.44;5110521;28;20200;-56
2023/12/12 07:13:41;;;;;;;47.47;20.73;;;;;;;5.22;100.00;99159.28;5114241;28;20249;-54
2023/12/12 07:16:10;;;;;;;40.13;19.43;;;;;;;5.23;100.00;99163.56;5112102;27;20290;-57
2023/12/12 07:18:38;;;;;;;42.57;20.37;;;;;;;5.24;100.00;99160.13;5110819;27;20286;-53
2023/12/12 07:21:08;;;;;;;40.47;20.60;;;;;;;5.26;100.00;99168.63;5114753;27;20291;-57
2023/12/12 07:23:35;;;;;;;35.37;18.67;;;;;;;5.26;100.00;99163.50;5118946;27;20631;-58
2023/12/12 07:26:03;;;;;;;36.00;19.63;;;;;;;5.27;100.00;99162.69;5117044;27;20217;-59
2023/12/12 07:28:31;;;;;;;37.90;18.07;;;;;;;5.28;100.00;99166.94;5120346;27;20211;-60
2023/12/12 07:31:02;;;;;;;39.80;19.27;;;;;;;5.29;100.00;99168.63;5114521;27;20273;-61
2023/12/12 07:33:30;;;;;;;39.97;19.47;;;;;;;5.33;100.00;99172.00;5113471;28;20203;-62
2023/12/12 07:35:58;;;;;;;34.77;19.47;;;;;;;5.37;100.00;99172.84;5105518;28;20208;-61
2023/12/12 07:38:26;;;;;;;34.87;18.23;;;;;;;5.41;100.00;99171.97;5118140;27;20577;-60
2023/12/12 07:40:54;;;;;;;35.77;18.27;;;;;;;5.41;100.00;99177.91;5114183;28;20195;-60
2023/12/12 07:43:22;;;;;;;37.77;18.33;;;;;;;5.43;100.00;99177.94;5114200;27;20230;-63
2023/12/12 07:45:50;;;;;;;35.07;18.37;;;;;;;5.45;100.00;99188.97;5098318;27;20224;-62
2023/12/12 07:48:20;;;;;;;34.43;18.30;;;;;;;5.47;100.00;99197.50;5100088;28;20253;-62
2023/12/12 07:50:48;;;;;;;31.40;17.77;;;;;;;5.47;100.00;99197.50;5112152;28;20628;-61
2023/12/12 07:53:16;;;;;;;33.00;17.80;;;;;;;5.46;100.00;99201.75;5120101;27;20727;-59
2023/12/12 07:55:43;;;;;;;33.37;17.70;;;;;;;5.47;100.00;99203.44;5113096;27;20613;-59
2023/12/12 07:58:12;;;;;;;32.00;19.07;;;;;;;5.43;99.79;99195.81;5113312;27;20667;-58
2023/12/12 08:00:40;;;;;;;32.37;17.80;;;;;;;5.44;100.00;99208.56;5116454;27;20203;-61
2023/12/12 08:03:08;;;;;;;38.43;19.07;;;;;;;5.46;99.91;99206.03;5100796;27;20196;-61
2023/12/12 08:05:37;;;;;;;33.47;18.53;;;;;;;5.48;100.00;99212.81;5106142;27;20257;-58
2023/12/12 08:08:06;;;;;;;37.23;18.93;;;;;;;5.48;100.00;99220.47;5104999;27;21761;-58
2023/12/12 08:10:35;;;;;;;36.57;18.27;;;;;;;5.50;100.00;99212.81;5111546;27;20680;-59
2023/12/12 08:13:04;;;;;;;34.63;18.40;;;;;;;5.55;99.92;99221.28;5108078;27;20261;-57
2023/12/12 08:15:33;;;;;;;31.23;16.77;;;;;;;5.55;99.78;99221.28;5110692;27;20294;-58
2023/12/12 08:18:01;;;;;;;29.40;16.07;;;;;;;5.55;100.00;99221.28;5106123;27;20208;-59
2023/12/12 08:20:29;;;;;;;24.50;15.53;;;;;;;5.55;98.65;99221.28;5100411;27;20686;-57
2023/12/12 08:22:58;;;;;;;23.17;14.53;;;;;;;5.53;99.70;99220.47;5102595;27;20199;-57
2023/12/12 08:25:27;;;;;;;31.03;16.70;;;;;;;5.56;99.22;99228.97;5101070;28;20230;-59
2023/12/12 08:27:57;;;;;;;31.40;17.30;;;;;;;5.57;99.30;99234.94;5115156;27;20246;-58
2023/12/12 08:30:25;;;;;;;31.53;17.30;;;;;;;5.56;98.67;99233.25;5124673;27;20256;-58
2023/12/12 08:32:53;;;;;;;32.33;15.93;;;;;;;5.57;98.71;99240.03;5106542;27;20655;-58
2023/12/12 08:35:21;;;;;;;29.47;16.67;;;;;;;5.56;99.07;99239.19;5102857;27;20210;-57
2023/12/12 08:37:49;;;;;;;32.67;17.10;;;;;;;5.55;98.67;99242.59;5110718;28;20314;-54
2023/12/12 08:40:19;;;;;;;31.67;16.67;;;;;;;5.55;98.57;99241.75;5105957;27;20204;-53
2023/12/12 08:42:48;;;;;;;31.87;16.80;;;;;;;5.55;98.82;99249.41;5107755;27;20239;-54
2023/12/12 08:45:16;;;;;;;31.87;17.43;;;;;;;5.54;98.33;99250.28;5112567;27;20260;-53
2023/12/12 08:47:44;;;;;;;30.53;16.53;;;;;;;5.57;98.99;99256.22;5114847;27;20264;-53
2023/12/12 08:50:13;;;;;;;38.23;19.10;;;;;;;5.59;98.64;99258.75;5113383;28;20200;-52
2023/12/12 08:52:41;;;;;;;38.77;16.93;;;;;;;5.62;99.02;99261.31;5109040;28;20207;-54
2023/12/12 08:55:10;;;;;;;30.73;16.63;;;;;;;5.62;98.65;99263.84;5097990;27;20679;-54
2023/12/12 08:57:40;;;;;;;30.50;16.50;;;;;;;5.62;98.58;99263.84;5110710;27;20766;-53
2023/12/12 09:00:10;;;;;;;31.17;17.33;;;;;;;5.63;98.27;99272.38;5100406;27;20211;-55
2023/12/12 09:02:39;;;;;;;31.17;16.63;;;;;;;5.61;98.53;99277.50;5107904;27;20234;-54
2023/12/12 09:05:08;;;;;;;27.07;15.83;;;;;;;5.57;98.33;99275.81;5120767;27;20655;-53
2023/12/12 09:07:36;;;;;;;29.13;15.57;;;;;;;5.53;98.05;99281.78;5111366;27;20223;-54
2023/12/12 09:10:06;;;;;;;27.30;15.63;;;;;;;5.53;98.34;99282.63;5100183;27;20207;-55
2023/12/12 09:12:34;;;;;;;27.10;15.23;;;;;;;5.53;98.45;99279.25;5111737;27;20196;-56
2023/12/12 09:15:05;;;;;;;23.53;13.87;;;;;;;5.56;98.21;99277.53;5121772;27;20677;-58
2023/12/12 09:17:33;;;;;;;26.53;14.20;;;;;;;5.57;98.15;99275.81;5110491;27;20573;-60
2023/12/12 09:20:02;;;;;;;24.10;13.77;;;;;;;5.57;97.94;99273.25;5113375;27;20704;-58
2023/12/12 09:22:31;;;;;;;25.63;14.20;;;;;;;5.56;98.08;99280.06;5110623;27;20784;-59
2023/12/12 09:24:59;;;;;;;21.90;12.30;;;;;;;5.58;98.09;99282.63;5105028;27;20235;-54
2023/12/12 09:27:27;;;;;;;25.57;14.33;;;;;;;5.55;97.56;99287.72;5112613;27;20231;-56
2023/12/12 09:29:55;;;;;;;22.87;12.93;;;;;;;5.53;96.98;99286.91;5115269;27;20318;-58
2023/12/12 09:32:25;;;;;;;21.33;12.57;;;;;;;5.50;97.73;99286.91;5112362;27;20205;-55
2023/12/12 09:34:53;;;;;;;22.37;13.10;;;;;;;5.48;97.47;99288.59;5109457;27;20231;-55
2023/12/12 09:37:22;;;;;;;25.83;13.93;;;;;;;5.42;96.59;99298.88;5118294;27;20560;-55
2023/12/12 09:39:50;;;;;;;22.97;13.17;;;;;;;5.35;96.89;99299.72;5102427;27;20548;-57
2023/12/12 09:42:20;;;;;;;22.73;13.47;;;;;;;5.29;97.94;99298.03;5119063;27;20714;-63
2023/12/12 09:44:57;;;;;;;24.70;14.63;;;;;;;5.25;97.48;99307.41;5113447;27;20631;-60
2023/12/12 09:47:28;;;;;;;22.33;14.43;;;;;;;5.24;98.23;99303.16;5099372;27;20582;-60
2023/12/12 09:49:56;;;;;;;23.73;14.50;;;;;;;5.24;98.24;99313.38;5110645;28;20208;-59
2023/12/12 09:52:25;;;;;;;26.33;15.70;;;;;;;5.21;97.61;99312.53;5112246;28;20207;-60
2023/12/12 09:54:54;;;;;;;23.13;13.57;;;;;;;5.18;97.95;99325.28;5111255;28;20203;-59
2023/12/12 09:57:23;;;;;;;22.13;13.33;;;;;;;5.13;98.10;99329.56;5112273;28;20647;-59
2023/12/12 09:59:51;;;;;;;18.97;11.80;;;;;;;5.05;97.94;99321.91;5112231;27;20227;-58
2023/12/12 10:02:23;;;;;;;18.00;11.27;;;;;;;4.98;97.59;99330.44;5112292;27;20268;-55
2023/12/12 10:04:54;;;;;;;13.50;9.50;;;;;;;4.93;97.69;99343.16;5103755;28;20204;-55
2023/12/12 10:07:24;;;;;;;16.30;9.90;;;;;;;4.88;98.06;99350.00;5105246;28;20216;-53
2023/12/12 10:09:52;;;;;;;13.63;9.63;;;;;;;4.82;97.60;99350.84;5112649;28;20723;-58
2023/12/12 10:12:20;;;;;;;11.60;7.40;;;;;;;4.75;97.43;99353.38;5109715;28;20196;-62
2023/12/12 10:14:48;;;;;;;10.43;7.83;;;;;;;4.61;97.11;99358.50;5120889;27;20210;-59
2023/12/12 10:17:16;;;;;;;11.47;7.87;;;;;;;4.58;96.94;99363.59;5104599;27;20644;-57
2023/12/12 10:19:45;;;;;;;10.17;7.67;;;;;;;4.52;96.87;99363.56;5112272;27;20655;-60
2023/12/12 10:22:17;;;;;;;10.10;7.83;;;;;;;4.49;97.12;99366.09;5108606;28;20211;-64
2023/12/12 10:24:45;;;;;;;8.80;6.60;;;;;;;4.45;97.16;99374.59;5110883;28;20574;-65
2023/12/12 10:27:21;;;;;;;11.53;7.90;;;;;;;4.38;96.22;99372.88;5101623;28;20760;-64
2023/12/12 10:29:49;;;;;;;10.67;7.83;;;;;;;4.34;96.24;99378.00;5111947;28;20192;-64
2023/12/12 10:32:17;;;;;;;12.73;8.30;;;;;;;4.33;96.80;99376.28;5112333;28;20211;-62
2023/12/12 10:34:46;;;;;;;9.80;6.23;;;;;;;4.31;96.28;99380.53;5112002;27;20218;-60
2023/12/12 10:37:21;;;;;;;9.90;6.63;;;;;;;4.33;96.37;99381.38;5110122;28;20241;-59
2023/12/12 10:39:51;;;;;;;9.43;6.20;;;;;;;4.29;96.01;99377.09;5093050;28;20207;-58
2023/12/12 10:42:18;;;;;;;8.80;6.07;;;;;;;4.27;95.78;99386.47;5106891;28;20207;-59
2023/12/12 10:44:48;;;;;;;11.60;6.83;;;;;;;4.29;95.97;99379.66;5097722;28;20561;-58
2023/12/12 10:47:16;;;;;;;8.73;5.97;;;;;;;4.34;96.72;99385.66;5106595;27;20215;-58
2023/12/12 10:49:53;;;;;;;12.00;6.40;;;;;;;4.37;95.70;99400.09;5113335;27;20651;-58
2023/12/12 10:52:23;;;;;;;9.67;7.13;;;;;;;4.35;95.36;99397.53;5106624;28;20204;-58
2023/12/12 10:54:52;;;;;;;10.03;6.97;;;;;;;4.37;95.39;99405.19;5111447;28;20192;-58
2023/12/12 10:57:21;;;;;;;12.70;7.97;;;;;;;4.39;95.32;99410.31;5111468;28;20270;-59
2023/12/12 10:59:50;;;;;;;13.00;7.50;;;;;;;4.39;94.92;99410.31;5103817;28;20222;-59
2023/12/12 11:02:32;;;;;;;11.30;7.43;;;;;;;4.36;94.92;99417.09;5111586;28;20211;-59
2023/12/12 11:05:01;;;;;;;11.83;7.40;;;;;;;4.36;94.65;99411.13;5103180;28;20200;-60
2023/12/12 11:07:31;;;;;;;10.50;7.67;;;;;;;4.27;93.81;99408.53;5098143;28;20334;-59
2023/12/12 11:09:59;;;;;;;11.00;7.70;;;;;;;4.22;93.81;99413.63;5100843;28;20196;-59
2023/12/12 11:12:28;;;;;;;14.83;7.87;;;;;;;4.24;94.35;99419.59;5110485;28;20761;-57
2023/12/12 11:14:57;;;;;;;10.70;7.97;;;;;;;4.18;94.13;99419.56;5109291;28;20199;-59
2023/12/12 11:17:25;;;;;;;13.80;8.20;;;;;;;4.20;94.10;99439.97;5113297;28;20744;-58
2023/12/12 11:19:54;;;;;;;13.97;9.00;;;;;;;4.18;93.44;99436.56;5115309;27;20200;-60
2023/12/12 11:22:43;;;;;;;14.17;8.73;;;;;;;4.15;93.67;99439.94;5103889;28;20536;-59
2023/12/12 11:25:16;;;;;;;14.57;8.73;;;;;;;4.15;93.40;99439.09;5100185;28;20204;-59
2023/12/12 11:27:49;;;;;;;13.50;9.23;;;;;;;4.05;92.98;99436.53;5104693;28;20242;-59